sensor_id;sensor_type;location;lat;lon;timestamp;P1;durP1;ratioP1;P2;durP2;ratioP2
21386;SDS011;10854;45.922;6.716;2023-08-20T00:00:37;7.33;;;4.90;;
21386;SDS011;10854;45.922;6.716;2023-08-20T00:03:12;9.47;;;4.87;;
21386;SDS011;10854;45.922;6.716;2023-08-20T00:05:41;8.50;;;5.40;;
21386;SDS011;10854;45.922;6.716;2023-08-20T00:08:10;9.77;;;5.40;;
21386;SDS011;10854;45.922;6.716;2023-08-20T00:10:38;8.63;;;5.20;;
21386;SDS011;10854;45.922;6.716;2023-08-20T00:13:06;7.07;;;4.90;;
21386;SDS011;10854;45.922;6.716;2023-08-20T00:15:35;7.43;;;4.90;;
21386;SDS011;10854;45.922;6.716;2023-08-20T00:18:04;11.00;;;5.37;;
21386;SDS011;10854;45.922;6.716;2023-08-20T00:20:33;9.77;;;4.83;;
21386;SDS011;10854;45.922;6.716;2023-08-20T00:23:02;8.27;;;4.90;;
21386;SDS011;10854;45.922;6.716;2023-08-20T00:25:31;9.43;;;5.03;;
21386;SDS011;10854;45.922;6.716;2023-08-20T00:28:00;11.60;;;5.50;;
21386;SDS011;10854;45.922;6.716;2023-08-20T00:30:28;7.77;;;5.33;;
21386;SDS011;10854;45.922;6.716;2023-08-20T00:32:56;12.50;;;5.40;;
21386;SDS011;10854;45.922;6.716;2023-08-20T00:35:25;10.27;;;5.30;;
21386;SDS011;10854;45.922;6.716;2023-08-20T00:37:53;9.43;;;5.37;;
21386;SDS011;10854;45.922;6.716;2023-08-20T00:40:21;10.93;;;5.47;;
21386;SDS011;10854;45.922;6.716;2023-08-20T00:42:50;9.77;;;5.10;;
21386;SDS011;10854;45.922;6.716;2023-08-20T00:45:18;9.20;;;5.07;;
21386;SDS011;10854;45.922;6.716;2023-08-20T00:47:46;8.80;;;5.10;;
21386;SDS011;10854;45.922;6.716;2023-08-20T00:50:15;8.63;;;5.00;;
21386;SDS011;10854;45.922;6.716;2023-08-20T00:52:44;9.47;;;5.43;;
21386;SDS011;10854;45.922;6.716;2023-08-20T00:55:14;8.67;;;5.33;;
21386;SDS011;10854;45.922;6.716;2023-08-20T00:57:43;9.73;;;5.50;;
21386;SDS011;10854;45.922;6.716;2023-08-20T01:00:12;7.53;;;4.87;;
21386;SDS011;10854;45.922;6.716;2023-08-20T01:02:40;7.90;;;4.73;;
21386;SDS011;10854;45.922;6.716;2023-08-20T01:05:10;12.70;;;5.37;;
21386;SDS011;10854;45.922;6.716;2023-08-20T01:07:42;12.37;;;5.20;;
21386;SDS011;10854;45.922;6.716;2023-08-20T01:13:02;7.43;;;5.07;;
21386;SDS011;10854;45.922;6.716;2023-08-20T01:15:31;9.77;;;4.93;;
21386;SDS011;10854;45.922;6.716;2023-08-20T01:18:00;8.77;;;5.27;;
21386;SDS011;10854;45.922;6.716;2023-08-20T01:20:33;6.80;;;4.90;;
21386;SDS011;10854;45.922;6.716;2023-08-20T01:23:14;6.80;;;5.00;;
21386;SDS011;10854;45.922;6.716;2023-08-20T01:26:34;6.80;;;4.87;;
21386;SDS011;10854;45.922;6.716;2023-08-20T01:29:17;8.70;;;4.87;;
21386;SDS011;10854;45.922;6.716;2023-08-20T01:31:46;5.40;;;4.47;;
21386;SDS011;10854;45.922;6.716;2023-08-20T01:34:15;10.10;;;6.10;;
21386;SDS011;10854;45.922;6.716;2023-08-20T01:36:43;8.73;;;5.17;;
21386;SDS011;10854;45.922;6.716;2023-08-20T01:39:12;9.53;;;5.47;;
21386;SDS011;10854;45.922;6.716;2023-08-20T01:41:41;9.30;;;5.10;;
21386;SDS011;10854;45.922;6.716;2023-08-20T01:44:09;10.63;;;6.03;;
21386;SDS011;10854;45.922;6.716;2023-08-20T01:46:37;11.90;;;5.20;;
21386;SDS011;10854;45.922;6.716;2023-08-20T01:49:07;9.63;;;5.10;;
21386;SDS011;10854;45.922;6.716;2023-08-20T01:51:35;10.33;;;5.30;;
21386;SDS011;10854;45.922;6.716;2023-08-20T01:54:04;10.13;;;5.67;;
21386;SDS011;10854;45.922;6.716;2023-08-20T01:56:32;8.33;;;5.43;;
21386;SDS011;10854;45.922;6.716;2023-08-20T01:59:01;7.37;;;5.70;;
21386;SDS011;10854;45.922;6.716;2023-08-20T02:01:29;7.37;;;4.87;;
21386;SDS011;10854;45.922;6.716;2023-08-20T02:03:58;7.43;;;5.07;;
21386;SDS011;10854;45.922;6.716;2023-08-20T02:06:26;9.40;;;5.33;;
21386;SDS011;10854;45.922;6.716;2023-08-20T02:08:54;10.07;;;5.90;;
21386;SDS011;10854;45.922;6.716;2023-08-20T02:11:22;11.97;;;5.17;;
21386;SDS011;10854;45.922;6.716;2023-08-20T02:13:51;9.30;;;5.47;;
21386;SDS011;10854;45.922;6.716;2023-08-20T02:16:19;10.80;;;5.47;;
21386;SDS011;10854;45.922;6.716;2023-08-20T02:18:48;12.47;;;5.83;;
21386;SDS011;10854;45.922;6.716;2023-08-20T02:21:16;9.13;;;5.07;;
21386;SDS011;10854;45.922;6.716;2023-08-20T02:23:44;13.83;;;5.70;;
21386;SDS011;10854;45.922;6.716;2023-08-20T02:26:13;9.07;;;5.07;;
21386;SDS011;10854;45.922;6.716;2023-08-20T02:28:42;7.73;;;5.50;;
21386;SDS011;10854;45.922;6.716;2023-08-20T02:31:10;8.20;;;4.80;;
21386;SDS011;10854;45.922;6.716;2023-08-20T02:33:39;8.80;;;4.70;;
21386;SDS011;10854;45.922;6.716;2023-08-20T02:36:07;9.40;;;5.50;;
21386;SDS011;10854;45.922;6.716;2023-08-20T02:38:36;9.97;;;5.17;;
21386;SDS011;10854;45.922;6.716;2023-08-20T02:41:05;8.87;;;5.00;;
21386;SDS011;10854;45.922;6.716;2023-08-20T02:43:33;9.20;;;5.33;;
21386;SDS011;10854;45.922;6.716;2023-08-20T02:46:01;10.30;;;5.60;;
21386;SDS011;10854;45.922;6.716;2023-08-20T02:48:30;8.07;;;5.57;;
21386;SDS011;10854;45.922;6.716;2023-08-20T02:50:58;10.10;;;5.03;;
21386;SDS011;10854;45.922;6.716;2023-08-20T02:53:26;11.17;;;5.70;;
21386;SDS011;10854;45.922;6.716;2023-08-20T02:55:55;9.30;;;5.13;;
21386;SDS011;10854;45.922;6.716;2023-08-20T02:58:26;9.37;;;5.20;;
21386;SDS011;10854;45.922;6.716;2023-08-20T03:00:54;7.97;;;5.37;;
21386;SDS011;10854;45.922;6.716;2023-08-20T03:03:22;9.97;;;5.43;;
21386;SDS011;10854;45.922;6.716;2023-08-20T03:05:51;7.13;;;5.10;;
21386;SDS011;10854;45.922;6.716;2023-08-20T03:08:19;8.60;;;5.47;;
21386;SDS011;10854;45.922;6.716;2023-08-20T03:10:47;12.33;;;5.70;;
21386;SDS011;10854;45.922;6.716;2023-08-20T03:13:16;8.70;;;5.47;;
21386;SDS011;10854;45.922;6.716;2023-08-20T03:15:44;7.90;;;5.30;;
21386;SDS011;10854;45.922;6.716;2023-08-20T03:18:12;10.23;;;5.10;;
21386;SDS011;10854;45.922;6.716;2023-08-20T03:20:40;9.30;;;5.60;;
21386;SDS011;10854;45.922;6.716;2023-08-20T03:23:09;7.30;;;5.13;;
21386;SDS011;10854;45.922;6.716;2023-08-20T03:25:38;8.73;;;5.03;;
21386;SDS011;10854;45.922;6.716;2023-08-20T03:28:06;10.80;;;5.10;;
21386;SDS011;10854;45.922;6.716;2023-08-20T03:30:36;7.27;;;4.80;;
21386;SDS011;10854;45.922;6.716;2023-08-20T03:33:04;10.03;;;5.13;;
21386;SDS011;10854;45.922;6.716;2023-08-20T03:35:32;14.77;;;5.70;;
21386;SDS011;10854;45.922;6.716;2023-08-20T03:38:02;8.80;;;4.90;;
21386;SDS011;10854;45.922;6.716;2023-08-20T03:40:30;10.27;;;4.93;;
21386;SDS011;10854;45.922;6.716;2023-08-20T03:42:59;10.33;;;5.07;;
21386;SDS011;10854;45.922;6.716;2023-08-20T03:45:27;9.57;;;5.63;;
21386;SDS011;10854;45.922;6.716;2023-08-20T03:47:57;9.67;;;4.80;;
21386;SDS011;10854;45.922;6.716;2023-08-20T03:50:26;9.50;;;4.80;;
21386;SDS011;10854;45.922;6.716;2023-08-20T03:52:54;9.70;;;5.00;;
21386;SDS011;10854;45.922;6.716;2023-08-20T03:55:22;7.93;;;4.97;;
21386;SDS011;10854;45.922;6.716;2023-08-20T03:57:51;7.97;;;5.27;;
21386;SDS011;10854;45.922;6.716;2023-08-20T04:00:19;12.93;;;5.00;;
21386;SDS011;10854;45.922;6.716;2023-08-20T04:02:47;12.33;;;5.30;;
21386;SDS011;10854;45.922;6.716;2023-08-20T04:05:16;9.13;;;5.60;;
21386;SDS011;10854;45.922;6.716;2023-08-20T04:07:44;7.70;;;5.30;;
21386;SDS011;10854;45.922;6.716;2023-08-20T04:10:12;13.40;;;5.20;;
21386;SDS011;10854;45.922;6.716;2023-08-20T04:12:41;10.57;;;5.40;;
21386;SDS011;10854;45.922;6.716;2023-08-20T04:15:09;7.63;;;5.50;;
21386;SDS011;10854;45.922;6.716;2023-08-20T04:17:37;8.67;;;5.23;;
21386;SDS011;10854;45.922;6.716;2023-08-20T04:20:06;7.50;;;4.80;;
21386;SDS011;10854;45.922;6.716;2023-08-20T04:22:37;7.13;;;4.83;;
21386;SDS011;10854;45.922;6.716;2023-08-20T04:25:06;8.90;;;5.23;;
21386;SDS011;10854;45.922;6.716;2023-08-20T04:27:35;7.40;;;4.70;;
21386;SDS011;10854;45.922;6.716;2023-08-20T04:30:04;11.73;;;5.27;;
21386;SDS011;10854;45.922;6.716;2023-08-20T04:32:33;8.33;;;4.60;;
21386;SDS011;10854;45.922;6.716;2023-08-20T04:35:02;10.20;;;5.07;;
21386;SDS011;10854;45.922;6.716;2023-08-20T04:37:30;9.87;;;5.17;;
21386;SDS011;10854;45.922;6.716;2023-08-20T04:39:58;9.83;;;5.10;;
21386;SDS011;10854;45.922;6.716;2023-08-20T04:42:27;10.47;;;5.10;;
21386;SDS011;10854;45.922;6.716;2023-08-20T04:44:55;10.43;;;5.20;;
21386;SDS011;10854;45.922;6.716;2023-08-20T04:47:23;9.60;;;5.00;;
21386;SDS011;10854;45.922;6.716;2023-08-20T04:49:52;10.07;;;5.53;;
21386;SDS011;10854;45.922;6.716;2023-08-20T04:52:20;11.37;;;5.40;;
21386;SDS011;10854;45.922;6.716;2023-08-20T04:54:49;7.37;;;4.40;;
21386;SDS011;10854;45.922;6.716;2023-08-20T04:57:17;8.20;;;4.80;;
21386;SDS011;10854;45.922;6.716;2023-08-20T04:59:45;8.43;;;5.43;;
21386;SDS011;10854;45.922;6.716;2023-08-20T05:02:14;12.20;;;5.50;;
21386;SDS011;10854;45.922;6.716;2023-08-20T05:04:42;10.90;;;5.70;;
21386;SDS011;10854;45.922;6.716;2023-08-20T05:07:10;7.57;;;5.60;;
21386;SDS011;10854;45.922;6.716;2023-08-20T05:09:39;12.17;;;5.50;;
21386;SDS011;10854;45.922;6.716;2023-08-20T05:12:07;8.90;;;5.57;;
21386;SDS011;10854;45.922;6.716;2023-08-20T05:14:36;11.50;;;4.90;;
21386;SDS011;10854;45.922;6.716;2023-08-20T05:17:04;11.50;;;5.10;;
21386;SDS011;10854;45.922;6.716;2023-08-20T05:19:32;8.30;;;5.37;;
21386;SDS011;10854;45.922;6.716;2023-08-20T05:22:00;7.30;;;5.10;;
21386;SDS011;10854;45.922;6.716;2023-08-20T05:24:29;8.63;;;5.33;;
21386;SDS011;10854;45.922;6.716;2023-08-20T05:27:03;9.60;;;5.40;;
21386;SDS011;10854;45.922;6.716;2023-08-20T05:29:36;7.00;;;5.77;;
21386;SDS011;10854;45.922;6.716;2023-08-20T05:32:06;9.60;;;5.17;;
21386;SDS011;10854;45.922;6.716;2023-08-20T05:34:35;7.50;;;5.20;;
21386;SDS011;10854;45.922;6.716;2023-08-20T05:37:04;9.43;;;5.20;;
21386;SDS011;10854;45.922;6.716;2023-08-20T05:39:41;7.23;;;5.03;;
21386;SDS011;10854;45.922;6.716;2023-08-20T05:42:11;9.23;;;5.40;;
21386;SDS011;10854;45.922;6.716;2023-08-20T05:44:39;12.63;;;5.13;;
21386;SDS011;10854;45.922;6.716;2023-08-20T05:47:09;11.70;;;5.57;;
21386;SDS011;10854;45.922;6.716;2023-08-20T05:49:37;10.17;;;5.50;;
21386;SDS011;10854;45.922;6.716;2023-08-20T05:52:06;12.83;;;5.67;;
21386;SDS011;10854;45.922;6.716;2023-08-20T05:54:34;9.80;;;5.27;;
21386;SDS011;10854;45.922;6.716;2023-08-20T05:57:02;11.23;;;6.07;;
21386;SDS011;10854;45.922;6.716;2023-08-20T05:59:31;10.47;;;5.83;;
21386;SDS011;10854;45.922;6.716;2023-08-20T06:02:00;11.20;;;5.57;;
21386;SDS011;10854;45.922;6.716;2023-08-20T06:04:30;7.07;;;5.37;;
21386;SDS011;10854;45.922;6.716;2023-08-20T06:06:58;8.83;;;4.77;;
21386;SDS011;10854;45.922;6.716;2023-08-20T06:09:26;8.37;;;5.13;;
21386;SDS011;10854;45.922;6.716;2023-08-20T06:11:55;9.90;;;5.13;;
21386;SDS011;10854;45.922;6.716;2023-08-20T06:14:23;8.80;;;5.30;;
21386;SDS011;10854;45.922;6.716;2023-08-20T06:16:52;9.45;;;5.10;;
21386;SDS011;10854;45.922;6.716;2023-08-20T06:19:20;10.02;;;4.57;;
21386;SDS011;10854;45.922;6.716;2023-08-20T06:21:48;9.05;;;5.03;;
21386;SDS011;10854;45.922;6.716;2023-08-20T06:24:16;9.43;;;4.68;;
21386;SDS011;10854;45.922;6.716;2023-08-20T06:26:45;10.20;;;4.88;;
21386;SDS011;10854;45.922;6.716;2023-08-20T06:29:13;7.78;;;4.88;;
21386;SDS011;10854;45.922;6.716;2023-08-20T06:31:41;7.22;;;4.40;;
21386;SDS011;10854;45.922;6.716;2023-08-20T06:34:10;10.25;;;4.80;;
21386;SDS011;10854;45.922;6.716;2023-08-20T06:36:38;11.07;;;4.65;;
21386;SDS011;10854;45.922;6.716;2023-08-20T06:39:06;8.25;;;4.60;;
21386;SDS011;10854;45.922;6.716;2023-08-20T06:41:35;7.80;;;4.80;;
21386;SDS011;10854;45.922;6.716;2023-08-20T06:44:03;8.65;;;4.78;;
21386;SDS011;10854;45.922;6.716;2023-08-20T06:46:32;8.82;;;4.80;;
21386;SDS011;10854;45.922;6.716;2023-08-20T06:49:00;10.93;;;4.68;;
21386;SDS011;10854;45.922;6.716;2023-08-20T06:51:29;13.30;;;5.22;;
21386;SDS011;10854;45.922;6.716;2023-08-20T06:53:57;12.02;;;4.72;;
21386;SDS011;10854;45.922;6.716;2023-08-20T06:56:26;9.60;;;4.75;;
21386;SDS011;10854;45.922;6.716;2023-08-20T06:58:55;10.05;;;4.75;;
21386;SDS011;10854;45.922;6.716;2023-08-20T07:01:23;8.18;;;4.68;;
21386;SDS011;10854;45.922;6.716;2023-08-20T07:03:52;8.50;;;4.70;;
21386;SDS011;10854;45.922;6.716;2023-08-20T07:06:20;7.78;;;4.75;;
21386;SDS011;10854;45.922;6.716;2023-08-20T07:08:49;9.68;;;4.88;;
21386;SDS011;10854;45.922;6.716;2023-08-20T07:11:17;10.23;;;4.68;;
21386;SDS011;10854;45.922;6.716;2023-08-20T07:13:46;9.27;;;4.90;;
21386;SDS011;10854;45.922;6.716;2023-08-20T07:16:14;9.55;;;4.43;;
21386;SDS011;10854;45.922;6.716;2023-08-20T07:18:42;7.85;;;4.25;;
21386;SDS011;10854;45.922;6.716;2023-08-20T07:21:10;7.25;;;4.68;;
21386;SDS011;10854;45.922;6.716;2023-08-20T07:23:39;9.07;;;4.80;;
21386;SDS011;10854;45.922;6.716;2023-08-20T07:26:08;9.73;;;5.20;;
21386;SDS011;10854;45.922;6.716;2023-08-20T07:28:37;7.40;;;4.50;;
21386;SDS011;10854;45.922;6.716;2023-08-20T07:31:24;11.38;;;4.50;;
21386;SDS011;10854;45.922;6.716;2023-08-20T07:33:54;7.18;;;4.10;;
21386;SDS011;10854;45.922;6.716;2023-08-20T07:36:24;10.32;;;4.55;;
21386;SDS011;10854;45.922;6.716;2023-08-20T07:38:53;10.57;;;4.38;;
21386;SDS011;10854;45.922;6.716;2023-08-20T07:41:22;8.63;;;4.35;;
21386;SDS011;10854;45.922;6.716;2023-08-20T07:43:50;9.15;;;4.60;;
21386;SDS011;10854;45.922;6.716;2023-08-20T07:46:18;10.40;;;4.45;;
21386;SDS011;10854;45.922;6.716;2023-08-20T07:48:47;9.07;;;3.90;;
21386;SDS011;10854;45.922;6.716;2023-08-20T07:51:15;8.98;;;4.60;;
21386;SDS011;10854;45.922;6.716;2023-08-20T07:53:43;8.45;;;4.22;;
21386;SDS011;10854;45.922;6.716;2023-08-20T07:56:11;9.13;;;4.55;;
21386;SDS011;10854;45.922;6.716;2023-08-20T07:58:40;8.15;;;4.45;;
21386;SDS011;10854;45.922;6.716;2023-08-20T08:01:08;8.05;;;4.22;;
21386;SDS011;10854;45.922;6.716;2023-08-20T08:03:37;10.15;;;4.60;;
21386;SDS011;10854;45.922;6.716;2023-08-20T08:06:05;9.93;;;4.85;;
21386;SDS011;10854;45.922;6.716;2023-08-20T08:08:33;12.27;;;4.55;;
21386;SDS011;10854;45.922;6.716;2023-08-20T08:11:02;7.70;;;4.30;;
21386;SDS011;10854;45.922;6.716;2023-08-20T08:13:30;8.40;;;4.40;;
21386;SDS011;10854;45.922;6.716;2023-08-20T08:15:58;12.88;;;4.43;;
21386;SDS011;10854;45.922;6.716;2023-08-20T08:18:26;10.43;;;4.35;;
21386;SDS011;10854;45.922;6.716;2023-08-20T08:20:55;11.07;;;4.55;;
21386;SDS011;10854;45.922;6.716;2023-08-20T08:23:23;11.65;;;4.32;;
21386;SDS011;10854;45.922;6.716;2023-08-20T08:25:51;10.35;;;4.43;;
21386;SDS011;10854;45.922;6.716;2023-08-20T08:28:19;9.32;;;4.45;;
21386;SDS011;10854;45.922;6.716;2023-08-20T08:30:48;8.70;;;4.28;;
21386;SDS011;10854;45.922;6.716;2023-08-20T08:33:16;8.73;;;4.05;;
21386;SDS011;10854;45.922;6.716;2023-08-20T08:35:46;10.63;;;4.57;;
21386;SDS011;10854;45.922;6.716;2023-08-20T08:38:14;8.40;;;4.35;;
21386;SDS011;10854;45.922;6.716;2023-08-20T08:40:42;8.85;;;4.57;;
21386;SDS011;10854;45.922;6.716;2023-08-20T08:43:10;8.05;;;4.20;;
21386;SDS011;10854;45.922;6.716;2023-08-20T08:45:46;7.22;;;4.22;;
21386;SDS011;10854;45.922;6.716;2023-08-20T08:48:16;10.10;;;4.43;;
21386;SDS011;10854;45.922;6.716;2023-08-20T08:50:46;8.95;;;4.45;;
21386;SDS011;10854;45.922;6.716;2023-08-20T08:53:19;9.98;;;4.20;;
21386;SDS011;10854;45.922;6.716;2023-08-20T08:55:48;10.73;;;4.65;;
21386;SDS011;10854;45.922;6.716;2023-08-20T08:58:16;7.05;;;4.45;;
21386;SDS011;10854;45.922;6.716;2023-08-20T09:00:45;10.32;;;4.22;;
21386;SDS011;10854;45.922;6.716;2023-08-20T09:03:14;11.95;;;4.00;;
21386;SDS011;10854;45.922;6.716;2023-08-20T09:05:46;9.30;;;4.30;;
21386;SDS011;10854;45.922;6.716;2023-08-20T09:08:22;10.98;;;4.70;;
21386;SDS011;10854;45.922;6.716;2023-08-20T09:10:55;12.57;;;4.35;;
21386;SDS011;10854;45.922;6.716;2023-08-20T09:13:32;13.35;;;5.10;;
21386;SDS011;10854;45.922;6.716;2023-08-20T09:16:03;8.70;;;4.47;;
21386;SDS011;10854;45.922;6.716;2023-08-20T09:18:44;10.60;;;4.57;;
21386;SDS011;10854;45.922;6.716;2023-08-20T09:21:13;9.88;;;4.32;;
21386;SDS011;10854;45.922;6.716;2023-08-20T09:23:44;9.05;;;4.45;;
21386;SDS011;10854;45.922;6.716;2023-08-20T09:26:14;11.85;;;4.88;;
21386;SDS011;10854;45.922;6.716;2023-08-20T09:28:43;13.32;;;4.35;;
21386;SDS011;10854;45.922;6.716;2023-08-20T09:31:13;9.30;;;4.75;;
21386;SDS011;10854;45.922;6.716;2023-08-20T09:33:52;12.95;;;4.70;;
21386;SDS011;10854;45.922;6.716;2023-08-20T09:36:33;10.00;;;4.28;;
21386;SDS011;10854;45.922;6.716;2023-08-20T09:39:02;9.32;;;4.40;;
21386;SDS011;10854;45.922;6.716;2023-08-20T09:41:31;10.88;;;4.55;;
21386;SDS011;10854;45.922;6.716;2023-08-20T09:44:04;8.70;;;4.45;;
21386;SDS011;10854;45.922;6.716;2023-08-20T09:46:33;14.15;;;4.68;;
21386;SDS011;10854;45.922;6.716;2023-08-20T09:49:03;10.23;;;4.82;;
21386;SDS011;10854;45.922;6.716;2023-08-20T09:51:35;14.18;;;4.22;;
21386;SDS011;10854;45.922;6.716;2023-08-20T09:56:41;11.43;;;4.93;;
21386;SDS011;10854;45.922;6.716;2023-08-20T09:59:14;8.95;;;4.22;;
21386;SDS011;10854;45.922;6.716;2023-08-20T10:01:44;11.10;;;4.65;;
21386;SDS011;10854;45.922;6.716;2023-08-20T10:04:15;15.00;;;4.40;;
21386;SDS011;10854;45.922;6.716;2023-08-20T10:06:46;7.80;;;4.35;;
21386;SDS011;10854;45.922;6.716;2023-08-20T10:09:15;12.27;;;4.82;;
21386;SDS011;10854;45.922;6.716;2023-08-20T10:11:45;9.85;;;4.38;;
21386;SDS011;10854;45.922;6.716;2023-08-20T10:14:15;6.18;;;3.90;;
21386;SDS011;10854;45.922;6.716;2023-08-20T10:16:43;8.13;;;4.60;;
21386;SDS011;10854;45.922;6.716;2023-08-20T10:19:14;10.82;;;4.47;;
21386;SDS011;10854;45.922;6.716;2023-08-20T10:21:45;8.82;;;4.15;;
21386;SDS011;10854;45.922;6.716;2023-08-20T10:24:16;12.25;;;4.72;;
21386;SDS011;10854;45.922;6.716;2023-08-20T10:26:53;11.57;;;4.65;;
21386;SDS011;10854;45.922;6.716;2023-08-20T10:29:39;7.18;;;4.00;;
21386;SDS011;10854;45.922;6.716;2023-08-20T10:32:11;9.00;;;4.28;;
21386;SDS011;10854;45.922;6.716;2023-08-20T10:34:42;8.20;;;4.47;;
21386;SDS011;10854;45.922;6.716;2023-08-20T10:37:20;12.27;;;4.63;;
21386;SDS011;10854;45.922;6.716;2023-08-20T10:39:55;10.43;;;4.57;;
21386;SDS011;10854;45.922;6.716;2023-08-20T10:42:26;10.15;;;3.90;;
21386;SDS011;10854;45.922;6.716;2023-08-20T10:44:58;6.95;;;4.57;;
21386;SDS011;10854;45.922;6.716;2023-08-20T10:47:43;8.30;;;4.30;;
21386;SDS011;10854;45.922;6.716;2023-08-20T10:50:15;12.80;;;5.05;;
21386;SDS011;10854;45.922;6.716;2023-08-20T10:52:54;8.43;;;4.50;;
21386;SDS011;10854;45.922;6.716;2023-08-20T10:55:23;8.18;;;4.30;;
21386;SDS011;10854;45.922;6.716;2023-08-20T10:57:55;9.55;;;4.00;;
21386;SDS011;10854;45.922;6.716;2023-08-20T11:00:24;9.00;;;3.80;;
21386;SDS011;10854;45.922;6.716;2023-08-20T11:02:53;12.55;;;4.47;;
21386;SDS011;10854;45.922;6.716;2023-08-20T11:05:22;11.63;;;4.75;;
21386;SDS011;10854;45.922;6.716;2023-08-20T11:07:51;10.10;;;4.63;;
21386;SDS011;10854;45.922;6.716;2023-08-20T11:10:19;9.38;;;4.40;;
21386;SDS011;10854;45.922;6.716;2023-08-20T11:12:48;10.98;;;4.80;;
21386;SDS011;10854;45.922;6.716;2023-08-20T11:15:16;9.45;;;4.50;;
21386;SDS011;10854;45.922;6.716;2023-08-20T11:17:46;12.35;;;4.18;;
21386;SDS011;10854;45.922;6.716;2023-08-20T11:20:16;13.05;;;4.50;;
21386;SDS011;10854;45.922;6.716;2023-08-20T11:22:45;11.35;;;4.50;;
21386;SDS011;10854;45.922;6.716;2023-08-20T11:25:13;9.45;;;4.15;;
21386;SDS011;10854;45.922;6.716;2023-08-20T11:27:42;13.02;;;4.30;;
21386;SDS011;10854;45.922;6.716;2023-08-20T11:30:11;8.25;;;3.90;;
21386;SDS011;10854;45.922;6.716;2023-08-20T11:32:40;7.70;;;4.25;;
21386;SDS011;10854;45.922;6.716;2023-08-20T11:35:10;9.80;;;4.10;;
21386;SDS011;10854;45.922;6.716;2023-08-20T11:37:40;11.02;;;4.30;;
21386;SDS011;10854;45.922;6.716;2023-08-20T11:40:08;10.55;;;4.55;;
21386;SDS011;10854;45.922;6.716;2023-08-20T11:42:39;11.38;;;4.68;;
21386;SDS011;10854;45.922;6.716;2023-08-20T11:45:09;11.10;;;4.10;;
21386;SDS011;10854;45.922;6.716;2023-08-20T11:47:38;12.88;;;4.40;;
21386;SDS011;10854;45.922;6.716;2023-08-20T11:50:08;10.60;;;4.70;;
21386;SDS011;10854;45.922;6.716;2023-08-20T11:52:37;12.68;;;4.65;;
21386;SDS011;10854;45.922;6.716;2023-08-20T11:55:12;13.77;;;5.18;;
21386;SDS011;10854;45.922;6.716;2023-08-20T11:57:40;17.67;;;5.05;;
21386;SDS011;10854;45.922;6.716;2023-08-20T12:00:08;16.27;;;4.53;;
21386;SDS011;10854;45.922;6.716;2023-08-20T12:02:52;15.13;;;4.40;;
21386;SDS011;10854;45.922;6.716;2023-08-20T12:05:27;11.48;;;4.20;;
21386;SDS011;10854;45.922;6.716;2023-08-20T12:07:56;13.07;;;4.45;;
21386;SDS011;10854;45.922;6.716;2023-08-20T12:10:28;17.10;;;5.03;;
21386;SDS011;10854;45.922;6.716;2023-08-20T12:12:57;11.90;;;4.30;;
21386;SDS011;10854;45.922;6.716;2023-08-20T12:15:26;13.65;;;4.43;;
21386;SDS011;10854;45.922;6.716;2023-08-20T12:17:57;13.18;;;4.68;;
21386;SDS011;10854;45.922;6.716;2023-08-20T12:20:35;14.02;;;4.47;;
21386;SDS011;10854;45.922;6.716;2023-08-20T12:23:05;11.27;;;4.63;;
21386;SDS011;10854;45.922;6.716;2023-08-20T12:25:34;13.23;;;4.18;;
21386;SDS011;10854;45.922;6.716;2023-08-20T12:28:03;15.73;;;4.82;;
21386;SDS011;10854;45.922;6.716;2023-08-20T12:30:33;11.75;;;4.78;;
21386;SDS011;10854;45.922;6.716;2023-08-20T12:33:04;12.45;;;4.32;;
21386;SDS011;10854;45.922;6.716;2023-08-20T12:35:33;13.45;;;4.70;;
21386;SDS011;10854;45.922;6.716;2023-08-20T12:38:02;14.27;;;4.50;;
21386;SDS011;10854;45.922;6.716;2023-08-20T12:40:31;8.35;;;3.78;;
21386;SDS011;10854;45.922;6.716;2023-08-20T12:42:59;12.07;;;3.83;;
21386;SDS011;10854;45.922;6.716;2023-08-20T12:45:28;9.80;;;3.78;;
21386;SDS011;10854;45.922;6.716;2023-08-20T12:47:56;7.68;;;3.70;;
21386;SDS011;10854;45.922;6.716;2023-08-20T12:50:26;11.85;;;3.80;;
21386;SDS011;10854;45.922;6.716;2023-08-20T12:52:54;6.93;;;3.58;;
21386;SDS011;10854;45.922;6.716;2023-08-20T12:55:23;6.22;;;3.13;;
21386;SDS011;10854;45.922;6.716;2023-08-20T12:57:52;7.55;;;3.28;;
21386;SDS011;10854;45.922;6.716;2023-08-20T13:00:23;7.72;;;3.47;;
21386;SDS011;10854;45.922;6.716;2023-08-20T13:02:54;9.95;;;3.13;;
21386;SDS011;10854;45.922;6.716;2023-08-20T13:05:24;8.48;;;3.00;;
21386;SDS011;10854;45.922;6.716;2023-08-20T13:07:53;6.03;;;2.70;;
21386;SDS011;10854;45.922;6.716;2023-08-20T13:10:22;4.65;;;2.60;;
21386;SDS011;10854;45.922;6.716;2023-08-20T13:12:51;7.47;;;3.13;;
21386;SDS011;10854;45.922;6.716;2023-08-20T13:15:23;6.75;;;3.20;;
21386;SDS011;10854;45.922;6.716;2023-08-20T13:17:52;5.20;;;2.83;;
21386;SDS011;10854;45.922;6.716;2023-08-20T13:20:21;6.38;;;3.28;;
21386;SDS011;10854;45.922;6.716;2023-08-20T13:22:51;6.53;;;3.00;;
21386;SDS011;10854;45.922;6.716;2023-08-20T13:25:19;7.30;;;2.63;;
21386;SDS011;10854;45.922;6.716;2023-08-20T13:27:51;7.10;;;2.95;;
21386;SDS011;10854;45.922;6.716;2023-08-20T13:30:19;7.13;;;3.10;;
21386;SDS011;10854;45.922;6.716;2023-08-20T13:32:48;4.97;;;3.03;;
21386;SDS011;10854;45.922;6.716;2023-08-20T13:35:17;6.72;;;3.00;;
21386;SDS011;10854;45.922;6.716;2023-08-20T13:37:45;9.07;;;3.20;;
21386;SDS011;10854;45.922;6.716;2023-08-20T13:40:14;8.52;;;3.70;;
21386;SDS011;10854;45.922;6.716;2023-08-20T13:42:47;11.75;;;3.70;;
21386;SDS011;10854;45.922;6.716;2023-08-20T13:45:15;11.07;;;3.22;;
21386;SDS011;10854;45.922;6.716;2023-08-20T13:47:44;8.93;;;3.33;;
21386;SDS011;10854;45.922;6.716;2023-08-20T13:50:14;7.38;;;3.20;;
21386;SDS011;10854;45.922;6.716;2023-08-20T13:52:42;9.32;;;3.95;;
21386;SDS011;10854;45.922;6.716;2023-08-20T13:55:10;8.75;;;3.33;;
21386;SDS011;10854;45.922;6.716;2023-08-20T13:57:39;9.80;;;3.45;;
21386;SDS011;10854;45.922;6.716;2023-08-20T14:00:08;12.57;;;4.10;;
21386;SDS011;10854;45.922;6.716;2023-08-20T14:02:39;9.13;;;3.20;;
21386;SDS011;10854;45.922;6.716;2023-08-20T14:05:09;9.35;;;3.42;;
21386;SDS011;10854;45.922;6.716;2023-08-20T14:07:38;8.30;;;3.70;;
21386;SDS011;10854;45.922;6.716;2023-08-20T14:10:06;7.53;;;3.30;;
21386;SDS011;10854;45.922;6.716;2023-08-20T14:12:35;7.45;;;3.25;;
21386;SDS011;10854;45.922;6.716;2023-08-20T14:15:05;8.57;;;3.30;;
21386;SDS011;10854;45.922;6.716;2023-08-20T14:17:34;10.65;;;3.63;;
21386;SDS011;10854;45.922;6.716;2023-08-20T14:20:03;9.18;;;3.60;;
21386;SDS011;10854;45.922;6.716;2023-08-20T14:22:32;9.52;;;3.53;;
21386;SDS011;10854;45.922;6.716;2023-08-20T14:25:01;6.30;;;2.72;;
21386;SDS011;10854;45.922;6.716;2023-08-20T14:27:31;10.23;;;3.45;;
21386;SDS011;10854;45.922;6.716;2023-08-20T14:29:59;10.05;;;3.90;;
21386;SDS011;10854;45.922;6.716;2023-08-20T14:32:28;7.93;;;2.90;;
21386;SDS011;10854;45.922;6.716;2023-08-20T14:34:56;12.80;;;3.30;;
21386;SDS011;10854;45.922;6.716;2023-08-20T14:37:26;8.63;;;3.08;;
21386;SDS011;10854;45.922;6.716;2023-08-20T14:39:54;9.65;;;3.35;;
21386;SDS011;10854;45.922;6.716;2023-08-20T14:42:22;8.23;;;3.65;;
21386;SDS011;10854;45.922;6.716;2023-08-20T14:44:51;8.07;;;3.40;;
21386;SDS011;10854;45.922;6.716;2023-08-20T14:47:21;8.68;;;3.05;;
21386;SDS011;10854;45.922;6.716;2023-08-20T14:49:49;6.25;;;3.63;;
21386;SDS011;10854;45.922;6.716;2023-08-20T14:52:17;7.57;;;3.47;;
21386;SDS011;10854;45.922;6.716;2023-08-20T14:54:46;9.77;;;3.60;;
21386;SDS011;10854;45.922;6.716;2023-08-20T14:57:15;10.48;;;3.92;;
21386;SDS011;10854;45.922;6.716;2023-08-20T14:59:44;12.50;;;4.05;;
21386;SDS011;10854;45.922;6.716;2023-08-20T15:02:13;10.23;;;3.85;;